sensor_id;sensor_type;location;lat;lon;timestamp;temperature;humidity
51175;DHT22;37240;50.104;20.010;2023-05-16T00:00:45;15.00;99.90
51175;DHT22;37240;50.104;20.010;2023-05-16T00:05:46;15.00;99.90
51175;DHT22;37240;50.104;20.010;2023-05-16T00:10:46;14.80;99.90
51175;DHT22;37240;50.104;20.010;2023-05-16T00:15:47;14.90;99.90
51175;DHT22;37240;50.104;20.010;2023-05-16T00:20:48;14.80;99.90
51175;DHT22;37240;50.104;20.010;2023-05-16T00:25:48;14.80;99.90
51175;DHT22;37240;50.104;20.010;2023-05-16T00:30:49;14.70;99.90
51175;DHT22;37240;50.104;20.010;2023-05-16T00:35:50;14.70;99.90
51175;DHT22;37240;50.104;20.010;2023-05-16T00:40:50;14.70;99.90
51175;DHT22;37240;50.104;20.010;2023-05-16T00:45:51;14.70;99.90
51175;DHT22;37240;50.104;20.010;2023-05-16T00:50:52;14.60;99.90
51175;DHT22;37240;50.104;20.010;2023-05-16T00:55:54;14.60;99.90
51175;DHT22;37240;50.104;20.010;2023-05-16T01:00:55;14.50;99.90
51175;DHT22;37240;50.104;20.010;2023-05-16T01:05:57;14.50;99.90
51175;DHT22;37240;50.104;20.010;2023-05-16T01:16:17;14.40;99.90
51175;DHT22;37240;50.104;20.010;2023-05-16T01:22:00;14.30;99.90
51175;DHT22;37240;50.104;20.010;2023-05-16T01:27:04;14.30;99.90
51175;DHT22;37240;50.104;20.010;2023-05-16T01:32:05;14.30;99.90
51175;DHT22;37240;50.104;20.010;2023-05-16T01:37:15;14.20;99.90
51175;DHT22;37240;50.104;20.010;2023-05-16T01:42:18;14.20;99.90
51175;DHT22;37240;50.104;20.010;2023-05-16T01:47:22;14.10;99.90
51175;DHT22;37240;50.104;20.010;2023-05-16T01:57:48;14.00;99.90
51175;DHT22;37240;50.104;20.010;2023-05-16T02:02:49;14.00;99.90
51175;DHT22;37240;50.104;20.010;2023-05-16T02:07:49;14.00;99.90
51175;DHT22;37240;50.104;20.010;2023-05-16T02:12:51;13.90;99.90
51175;DHT22;37240;50.104;20.010;2023-05-16T02:17:51;13.90;99.90
51175;DHT22;37240;50.104;20.010;2023-05-16T02:22:52;13.90;99.90
51175;DHT22;37240;50.104;20.010;2023-05-16T02:27:52;13.80;99.90
51175;DHT22;37240;50.104;20.010;2023-05-16T02:32:53;13.70;99.90
51175;DHT22;37240;50.104;20.010;2023-05-16T02:37:53;13.70;99.90
51175;DHT22;37240;50.104;20.010;2023-05-16T02:42:54;13.60;99.90
51175;DHT22;37240;50.104;20.010;2023-05-16T02:47:54;13.50;99.90
51175;DHT22;37240;50.104;20.010;2023-05-16T02:52:55;13.40;99.90
51175;DHT22;37240;50.104;20.010;2023-05-16T02:57:55;13.30;99.90
51175;DHT22;37240;50.104;20.010;2023-05-16T03:02:56;13.30;99.90
51175;DHT22;37240;50.104;20.010;2023-05-16T03:07:56;13.40;99.90
51175;DHT22;37240;50.104;20.010;2023-05-16T03:12:57;13.50;99.90
51175;DHT22;37240;50.104;20.010;2023-05-16T03:17:57;13.70;99.90
51175;DHT22;37240;50.104;20.010;2023-05-16T03:22:58;13.90;99.90
51175;DHT22;37240;50.104;20.010;2023-05-16T03:27:58;14.20;99.90
51175;DHT22;37240;50.104;20.010;2023-05-16T03:32:59;14.60;99.90
51175;DHT22;37240;50.104;20.010;2023-05-16T03:38:00;14.90;99.90
51175;DHT22;37240;50.104;20.010;2023-05-16T03:43:00;15.20;99.90
51175;DHT22;37240;50.104;20.010;2023-05-16T03:48:01;15.90;99.90
51175;DHT22;37240;50.104;20.010;2023-05-16T03:53:02;16.70;99.90
51175;DHT22;37240;50.104;20.010;2023-05-16T03:58:02;17.60;99.90
51175;DHT22;37240;50.104;20.010;2023-05-16T04:03:03;19.20;99.00
51175;DHT22;37240;50.104;20.010;2023-05-16T04:08:03;20.80;95.10
51175;DHT22;37240;50.104;20.010;2023-05-16T04:13:04;22.10;91.30
51175;DHT22;37240;50.104;20.010;2023-05-16T04:18:04;23.20;86.10
51175;DHT22;37240;50.104;20.010;2023-05-16T04:23:05;24.20;79.40
51175;DHT22;37240;50.104;20.010;2023-05-16T04:28:05;25.00;71.70
51175;DHT22;37240;50.104;20.010;2023-05-16T04:33:06;25.90;66.40
51175;DHT22;37240;50.104;20.010;2023-05-16T04:38:07;26.80;60.30
51175;DHT22;37240;50.104;20.010;2023-05-16T04:43:07;27.40;57.20
51175;DHT22;37240;50.104;20.010;2023-05-16T04:48:08;28.10;54.30
51175;DHT22;37240;50.104;20.010;2023-05-16T04:53:08;28.80;51.80
51175;DHT22;37240;50.104;20.010;2023-05-16T04:58:09;29.50;50.20
51175;DHT22;37240;50.104;20.010;2023-05-16T05:03:09;30.00;48.10
51175;DHT22;37240;50.104;20.010;2023-05-16T05:08:10;30.50;47.60
51175;DHT22;37240;50.104;20.010;2023-05-16T05:13:10;30.60;45.80
51175;DHT22;37240;50.104;20.010;2023-05-16T05:18:11;30.80;45.20
51175;DHT22;37240;50.104;20.010;2023-05-16T05:23:11;31.20;44.40
51175;DHT22;37240;50.104;20.010;2023-05-16T05:28:12;31.80;42.80
51175;DHT22;37240;50.104;20.010;2023-05-16T05:33:15;32.00;42.50
51175;DHT22;37240;50.104;20.010;2023-05-16T05:38:16;32.00;42.00
51175;DHT22;37240;50.104;20.010;2023-05-16T05:43:16;32.00;42.60
51175;DHT22;37240;50.104;20.010;2023-05-16T05:48:17;32.00;42.00
51175;DHT22;37240;50.104;20.010;2023-05-16T05:53:17;32.60;41.30
51175;DHT22;37240;50.104;20.010;2023-05-16T05:58:19;32.80;40.80
51175;DHT22;37240;50.104;20.010;2023-05-16T06:03:19;32.80;40.60
51175;DHT22;37240;50.104;20.010;2023-05-16T06:08:20;33.00;38.70
51175;DHT22;37240;50.104;20.010;2023-05-16T06:13:20;32.40;39.80
51175;DHT22;37240;50.104;20.010;2023-05-16T06:18:21;32.40;39.80
51175;DHT22;37240;50.104;20.010;2023-05-16T06:23:21;32.10;40.20
51175;DHT22;37240;50.104;20.010;2023-05-16T06:28:22;31.30;40.80
51175;DHT22;37240;50.104;20.010;2023-05-16T06:33:22;30.70;42.40
51175;DHT22;37240;50.104;20.010;2023-05-16T06:38:23;30.10;42.70
51175;DHT22;37240;50.104;20.010;2023-05-16T06:43:24;29.30;44.60
51175;DHT22;37240;50.104;20.010;2023-05-16T06:48:24;29.40;44.60
51175;DHT22;37240;50.104;20.010;2023-05-16T06:53:25;29.40;44.50
51175;DHT22;37240;50.104;20.010;2023-05-16T06:58:25;29.30;44.30
51175;DHT22;37240;50.104;20.010;2023-05-16T07:03:27;29.50;44.90
51175;DHT22;37240;50.104;20.010;2023-05-16T07:08:27;29.50;44.50
51175;DHT22;37240;50.104;20.010;2023-05-16T07:13:28;29.50;44.60
51175;DHT22;37240;50.104;20.010;2023-05-16T07:18:28;29.60;44.30
51175;DHT22;37240;50.104;20.010;2023-05-16T07:23:29;29.40;44.80
51175;DHT22;37240;50.104;20.010;2023-05-16T07:28:29;29.40;44.60
51175;DHT22;37240;50.104;20.010;2023-05-16T07:33:30;29.40;44.10
51175;DHT22;37240;50.104;20.010;2023-05-16T07:38:30;29.50;44.30
51175;DHT22;37240;50.104;20.010;2023-05-16T07:43:31;29.50;43.60
51175;DHT22;37240;50.104;20.010;2023-05-16T07:48:31;29.50;43.50
51175;DHT22;37240;50.104;20.010;2023-05-16T07:53:32;29.70;44.10
51175;DHT22;37240;50.104;20.010;2023-05-16T07:58:33;29.80;43.60
51175;DHT22;37240;50.104;20.010;2023-05-16T08:03:34;29.90;43.80
51175;DHT22;37240;50.104;20.010;2023-05-16T08:08:34;29.80;44.00
51175;DHT22;37240;50.104;20.010;2023-05-16T08:13:35;29.70;43.80
51175;DHT22;37240;50.104;20.010;2023-05-16T08:18:37;29.60;44.30
51175;DHT22;37240;50.104;20.010;2023-05-16T08:23:37;29.60;44.00
51175;DHT22;37240;50.104;20.010;2023-05-16T08:28:38;29.60;44.20
51175;DHT22;37240;50.104;20.010;2023-05-16T08:33:38;29.50;44.20
51175;DHT22;37240;50.104;20.010;2023-05-16T08:38:39;29.70;44.10
51175;DHT22;37240;50.104;20.010;2023-05-16T08:43:39;29.60;43.50
51175;DHT22;37240;50.104;20.010;2023-05-16T08:48:41;29.50;43.90
51175;DHT22;37240;50.104;20.010;2023-05-16T08:53:45;29.40;43.10
51175;DHT22;37240;50.104;20.010;2023-05-16T08:58:49;29.20;44.00
51175;DHT22;37240;50.104;20.010;2023-05-16T09:03:51;29.20;44.40
51175;DHT22;37240;50.104;20.010;2023-05-16T09:08:52;29.40;44.10
51175;DHT22;37240;50.104;20.010;2023-05-16T09:13:53;29.30;43.70
51175;DHT22;37240;50.104;20.010;2023-05-16T09:18:55;29.30;43.50
51175;DHT22;37240;50.104;20.010;2023-05-16T09:24:04;29.40;42.70
51175;DHT22;37240;50.104;20.010;2023-05-16T09:29:12;29.40;42.60
51175;DHT22;37240;50.104;20.010;2023-05-16T09:34:12;29.30;42.20
51175;DHT22;37240;50.104;20.010;2023-05-16T09:39:14;29.20;42.20
51175;DHT22;37240;50.104;20.010;2023-05-16T09:44:17;29.00;42.80
51175;DHT22;37240;50.104;20.010;2023-05-16T09:49:18;29.10;42.70
51175;DHT22;37240;50.104;20.010;2023-05-16T09:54:32;29.10;42.50
51175;DHT22;37240;50.104;20.010;2023-05-16T09:59:37;29.10;42.80
51175;DHT22;37240;50.104;20.010;2023-05-16T10:04:37;28.90;42.90
51175;DHT22;37240;50.104;20.010;2023-05-16T10:09:38;28.70;43.60
51175;DHT22;37240;50.104;20.010;2023-05-16T10:14:40;28.50;44.30
51175;DHT22;37240;50.104;20.010;2023-05-16T10:19:42;28.20;44.20
51175;DHT22;37240;50.104;20.010;2023-05-16T10:24:47;28.00;44.50
51175;DHT22;37240;50.104;20.010;2023-05-16T10:29:50;27.90;45.10
51175;DHT22;37240;50.104;20.010;2023-05-16T10:34:51;27.90;44.60
51175;DHT22;37240;50.104;20.010;2023-05-16T10:39:53;27.90;44.90
51175;DHT22;37240;50.104;20.010;2023-05-16T10:44:54;27.80;45.40
51175;DHT22;37240;50.104;20.010;2023-05-16T10:49:54;27.70;45.20
51175;DHT22;37240;50.104;20.010;2023-05-16T10:54:55;27.40;44.80
51175;DHT22;37240;50.104;20.010;2023-05-16T10:59:57;27.40;45.30
51175;DHT22;37240;50.104;20.010;2023-05-16T11:04:59;27.50;45.20
51175;DHT22;37240;50.104;20.010;2023-05-16T11:10:15;27.40;45.70
51175;DHT22;37240;50.104;20.010;2023-05-16T11:15:20;27.20;45.90
51175;DHT22;37240;50.104;20.010;2023-05-16T11:20:48;27.30;46.80
51175;DHT22;37240;50.104;20.010;2023-05-16T11:25:56;27.20;46.10
51175;DHT22;37240;50.104;20.010;2023-05-16T11:30:57;27.20;46.80
51175;DHT22;37240;50.104;20.010;2023-05-16T11:36:07;27.10;45.70
51175;DHT22;37240;50.104;20.010;2023-05-16T11:41:08;26.80;46.40
51175;DHT22;37240;50.104;20.010;2023-05-16T11:46:12;26.80;47.70
51175;DHT22;37240;50.104;20.010;2023-05-16T11:51:14;26.70;48.70
51175;DHT22;37240;50.104;20.010;2023-05-16T11:56:17;26.40;49.10
51175;DHT22;37240;50.104;20.010;2023-05-16T12:01:17;26.20;50.00
51175;DHT22;37240;50.104;20.010;2023-05-16T12:06:18;25.90;50.90
51175;DHT22;37240;50.104;20.010;2023-05-16T12:11:18;25.60;51.00
51175;DHT22;37240;50.104;20.010;2023-05-16T12:16:21;25.00;52.00
51175;DHT22;37240;50.104;20.010;2023-05-16T12:21:22;24.90;52.00
51175;DHT22;37240;50.104;20.010;2023-05-16T12:26:32;24.80;52.80
51175;DHT22;37240;50.104;20.010;2023-05-16T12:31:38;24.70;52.10
51175;DHT22;37240;50.104;20.010;2023-05-16T12:36:39;24.50;52.80
51175;DHT22;37240;50.104;20.010;2023-05-16T12:41:41;24.30;53.30
51175;DHT22;37240;50.104;20.010;2023-05-16T12:46:43;24.20;53.10
51175;DHT22;37240;50.104;20.010;2023-05-16T12:51:51;23.90;53.80
51175;DHT22;37240;50.104;20.010;2023-05-16T12:56:52;23.90;54.40
51175;DHT22;37240;50.104;20.010;2023-05-16T13:01:52;23.90;54.70
51175;DHT22;37240;50.104;20.010;2023-05-16T13:06:53;23.80;54.00
51175;DHT22;37240;50.104;20.010;2023-05-16T13:11:53;23.70;55.20
51175;DHT22;37240;50.104;20.010;2023-05-16T13:16:54;23.70;54.60
51175;DHT22;37240;50.104;20.010;2023-05-16T13:21:54;23.50;55.20
51175;DHT22;37240;50.104;20.010;2023-05-16T13:26:55;23.40;56.50
51175;DHT22;37240;50.104;20.010;2023-05-16T13:31:55;23.20;57.60
51175;DHT22;37240;50.104;20.010;2023-05-16T13:36:56;23.10;60.40
51175;DHT22;37240;50.104;20.010;2023-05-16T13:41:56;22.80;63.70
51175;DHT22;37240;50.104;20.010;2023-05-16T13:46:57;22.70;67.00
51175;DHT22;37240;50.104;20.010;2023-05-16T13:51:58;22.50;68.90
51175;DHT22;37240;50.104;20.010;2023-05-16T13:56:58;22.40;72.30
51175;DHT22;37240;50.104;20.010;2023-05-16T14:01:59;22.40;74.40
51175;DHT22;37240;50.104;20.010;2023-05-16T14:06:59;22.50;77.90
51175;DHT22;37240;50.104;20.010;2023-05-16T14:12:00;22.60;81.10
51175;DHT22;37240;50.104;20.010;2023-05-16T14:17:01;22.70;81.00
51175;DHT22;37240;50.104;20.010;2023-05-16T14:22:02;22.60;82.50
51175;DHT22;37240;50.104;20.010;2023-05-16T14:27:02;22.70;83.70
51175;DHT22;37240;50.104;20.010;2023-05-16T14:32:03;22.70;83.30
51175;DHT22;37240;50.104;20.010;2023-05-16T14:37:04;22.80;81.30
51175;DHT22;37240;50.104;20.010;2023-05-16T14:42:05;22.60;79.00
51175;DHT22;37240;50.104;20.010;2023-05-16T14:47:05;22.30;78.80
51175;DHT22;37240;50.104;20.010;2023-05-16T14:52:06;22.20;78.80
51175;DHT22;37240;50.104;20.010;2023-05-16T14:57:06;22.00;80.50
51175;DHT22;37240;50.104;20.010;2023-05-16T15:02:07;22.00;80.80
51175;DHT22;37240;50.104;20.010;2023-05-16T15:07:08;21.80;81.80
51175;DHT22;37240;50.104;20.010;2023-05-16T15:12:08;21.60;83.00
51175;DHT22;37240;50.104;20.010;2023-05-16T15:17:09;21.60;83.50
51175;DHT22;37240;50.104;20.010;2023-05-16T15:22:09;21.50;83.30
51175;DHT22;37240;50.104;20.010;2023-05-16T15:27:10;21.40;83.20
51175;DHT22;37240;50.104;20.010;2023-05-16T15:32:10;21.40;83.60
51175;DHT22;37240;50.104;20.010;2023-05-16T15:37:11;21.40;84.20
51175;DHT22;37240;50.104;20.010;2023-05-16T15:42:11;21.30;86.00
51175;DHT22;37240;50.104;20.010;2023-05-16T15:47:12;21.30;87.30
51175;DHT22;37240;50.104;20.010;2023-05-16T15:52:12;21.20;90.20
51175;DHT22;37240;50.104;20.010;2023-05-16T15:57:13;21.20;91.30
51175;DHT22;37240;50.104;20.010;2023-05-16T16:02:13;21.10;92.70
51175;DHT22;37240;50.104;20.010;2023-05-16T16:07:14;21.00;93.50
51175;DHT22;37240;50.104;20.010;2023-05-16T16:12:15;20.80;94.00
51175;DHT22;37240;50.104;20.010;2023-05-16T16:17:15;20.40;94.90
51175;DHT22;37240;50.104;20.010;2023-05-16T16:22:16;20.30;94.80
51175;DHT22;37240;50.104;20.010;2023-05-16T16:27:16;20.10;95.20
51175;DHT22;37240;50.104;20.010;2023-05-16T16:32:17;20.00;95.90
51175;DHT22;37240;50.104;20.010;2023-05-16T16:37:18;19.90;96.80
51175;DHT22;37240;50.104;20.010;2023-05-16T16:42:18;19.80;97.30
51175;DHT22;37240;50.104;20.010;2023-05-16T16:47:20;19.70;97.80
51175;DHT22;37240;50.104;20.010;2023-05-16T16:52:20;19.70;98.40
51175;DHT22;37240;50.104;20.010;2023-05-16T16:57:21;19.40;98.50
51175;DHT22;37240;50.104;20.010;2023-05-16T17:02:22;19.30;98.80
51175;DHT22;37240;50.104;20.010;2023-05-16T17:07:22;19.30;98.50
51175;DHT22;37240;50.104;20.010;2023-05-16T17:12:23;19.30;98.60
51175;DHT22;37240;50.104;20.010;2023-05-16T17:17:24;19.20;99.00
51175;DHT22;37240;50.104;20.010;2023-05-16T17:22:25;19.10;99.50
51175;DHT22;37240;50.104;20.010;2023-05-16T17:27:25;19.00;99.90
51175;DHT22;37240;50.104;20.010;2023-05-16T17:32:26;19.00;99.90
51175;DHT22;37240;50.104;20.010;2023-05-16T17:37:26;19.00;99.90
51175;DHT22;37240;50.104;20.010;2023-05-16T17:42:27;19.00;99.90
51175;DHT22;37240;50.104;20.010;2023-05-16T17:47:27;18.90;99.90
51175;DHT22;37240;50.104;20.010;2023-05-16T17:52:28;18.70;99.90
51175;DHT22;37240;50.104;20.010;2023-05-16T17:57:29;18.60;99.90
51175;DHT22;37240;50.104;20.010;2023-05-16T18:02:29;18.50;99.90
51175;DHT22;37240;50.104;20.010;2023-05-16T18:07:30;18.50;99.90
51175;DHT22;37240;50.104;20.010;2023-05-16T18:12:30;18.30;99.90
51175;DHT22;37240;50.104;20.010;2023-05-16T18:17:32;18.30;99.90
51175;DHT22;37240;50.104;20.010;2023-05-16T18:22:33;18.20;99.90
51175;DHT22;37240;50.104;20.010;2023-05-16T18:27:33;18.10;99.90
51175;DHT22;37240;50.104;20.010;2023-05-16T18:32:34;18.10;99.90
51175;DHT22;37240;50.104;20.010;2023-05-16T18:37:34;18.00;99.90
51175;DHT22;37240;50.104;20.010;2023-05-16T18:42:35;18.00;99.90
51175;DHT22;37240;50.104;20.010;2023-05-16T18:47:35;17.90;99.90
51175;DHT22;37240;50.104;20.010;2023-05-16T18:52:36;17.90;99.90
51175;DHT22;37240;50.104;20.010;2023-05-16T18:57:37;17.80;99.90
51175;DHT22;37240;50.104;20.010;2023-05-16T19:02:37;17.80;99.90
51175;DHT22;37240;50.104;20.010;2023-05-16T19:07:38;17.70;99.90
51175;DHT22;37240;50.104;20.010;2023-05-16T19:12:38;17.50;99.90
51175;DHT22;37240;50.104;20.010;2023-05-16T19:17:39;17.30;99.90
51175;DHT22;37240;50.104;20.010;2023-05-16T19:22:39;17.20;99.90
51175;DHT22;37240;50.104;20.010;2023-05-16T19:27:40;17.20;99.90
51175;DHT22;37240;50.104;20.010;2023-05-16T19:32:40;17.20;99.90
51175;DHT22;37240;50.104;20.010;2023-05-16T19:37:41;17.20;99.90
51175;DHT22;37240;50.104;20.010;2023-05-16T19:42:41;17.00;99.90
51175;DHT22;37240;50.104;20.010;2023-05-16T19:47:42;17.00;99.90
51175;DHT22;37240;50.104;20.010;2023-05-16T19:52:42;17.00;99.90
51175;DHT22;37240;50.104;20.010;2023-05-16T19:57:43;17.10;99.90
51175;DHT22;37240;50.104;20.010;2023-05-16T20:02:44;17.00;99.90
51175;DHT22;37240;50.104;20.010;2023-05-16T20:07:45;16.90;99.90
51175;DHT22;37240;50.104;20.010;2023-05-16T20:12:45;16.80;99.90
51175;DHT22;37240;50.104;20.010;2023-05-16T20:17:46;16.70;99.90
51175;DHT22;37240;50.104;20.010;2023-05-16T20:22:46;16.50;99.90
51175;DHT22;37240;50.104;20.010;2023-05-16T20:27:47;16.50;99.90
51175;DHT22;37240;50.104;20.010;2023-05-16T20:32:47;16.60;99.90
51175;DHT22;37240;50.104;20.010;2023-05-16T20:37:48;16.60;99.90
51175;DHT22;37240;50.104;20.010;2023-05-16T20:42:48;16.70;99.90
51175;DHT22;37240;50.104;20.010;2023-05-16T20:47:49;16.50;99.90
51175;DHT22;37240;50.104;20.010;2023-05-16T20:52:49;16.50;99.90
51175;DHT22;37240;50.104;20.010;2023-05-16T20:57:50;16.50;99.90
51175;DHT22;37240;50.104;20.010;2023-05-16T21:02:50;16.40;99.90
51175;DHT22;37240;50.104;20.010;2023-05-16T21:07:51;16.20;99.90
51175;DHT22;37240;50.104;20.010;2023-05-16T21:12:52;16.10;99.90
51175;DHT22;37240;50.104;20.010;2023-05-16T21:17:52;16.00;99.90
51175;DHT22;37240;50.104;20.010;2023-05-16T21:22:53;16.00;99.90
51175;DHT22;37240;50.104;20.010;2023-05-16T21:27:53;16.00;99.90
51175;DHT22;37240;50.104;20.010;2023-05-16T21:32:54;16.00;99.90
51175;DHT22;37240;50.104;20.010;2023-05-16T21:37:54;16.00;99.90
51175;DHT22;37240;50.104;20.010;2023-05-16T21:42:55;16.00;99.90
51175;DHT22;37240;50.104;20.010;2023-05-16T21:47:55;15.90;99.90
51175;DHT22;37240;50.104;20.010;2023-05-16T21:52:56;15.80;99.90
51175;DHT22;37240;50.104;20.010;2023-05-16T21:57:56;15.80;99.90
51175;DHT22;37240;50.104;20.010;2023-05-16T22:02:57;15.80;99.90
51175;DHT22;37240;50.104;20.010;2023-05-16T22:07:57;15.80;99.90
51175;DHT22;37240;50.104;20.010;2023-05-16T22:12:58;15.70;99.90
51175;DHT22;37240;50.104;20.010;2023-05-16T22:17:58;15.60;99.90
51175;DHT22;37240;50.104;20.010;2023-05-16T22:22:59;15.70;99.90
51175;DHT22;37240;50.104;20.010;2023-05-16T22:27:59;15.60;99.90
51175;DHT22;37240;50.104;20.010;2023-05-16T22:33:00;15.70;99.90
51175;DHT22;37240;50.104;20.010;2023-05-16T22:38:00;15.70;99.90
51175;DHT22;37240;50.104;20.010;2023-05-16T22:43:01;15.60;99.90
51175;DHT22;37240;50.104;20.010;2023-05-16T22:48:02;15.50;99.90
51175;DHT22;37240;50.104;20.010;2023-05-16T22:53:02;15.60;99.90
51175;DHT22;37240;50.104;20.010;2023-05-16T22:58:03;15.60;99.90
51175;DHT22;37240;50.104;20.010;2023-05-16T23:03:03;15.60;99.90
51175;DHT22;37240;50.104;20.010;2023-05-16T23:08:04;15.50;99.90
51175;DHT22;37240;50.104;20.010;2023-05-16T23:13:04;15.50;99.90
51175;DHT22;37240;50.104;20.010;2023-05-16T23:18:05;15.50;99.90
51175;DHT22;37240;50.104;20.010;2023-05-16T23:23:05;15.50;99.90
51175;DHT22;37240;50.104;20.010;2023-05-16T23:28:06;15.50;99.90
51175;DHT22;37240;50.104;20.010;2023-05-16T23:33:06;15.50;99.90
51175;DHT22;37240;50.104;20.010;2023-05-16T23:38:07;15.50;99.90
51175;DHT22;37240;50.104;20.010;2023-05-16T23:43:08;15.60;99.90
51175;DHT22;37240;50.104;20.010;2023-05-16T23:48:08;15.60;99.90
51175;DHT22;37240;50.104;20.010;2023-05-16T23:53:09;15.60;99.90
51175;DHT22;37240;50.104;20.010;2023-05-16T23:58:09;15.60;99.90
